Time;durP1;ratioP1;P1;durP2;ratioP2;P2;SDS_P1;SDS_P2;PMS_P1;PMS_P2;Temp;Humidity;BMP_temperature;BMP_pressure;BME280_temperature;BME280_humidity;BME280_pressure;Samples;Min_cycle;Max_cycle;Signal;HPM_P1;HPM_P2
2023/01/25 00:01:35;;;;;;;30.67;25.83;;;5.00;59.70;;;;;;20294;6918;319587;-73
2023/01/25 00:04:01;;;;;;;34.05;26.33;;;5.20;58.90;;;;;;20292;6918;321105;-73
2023/01/25 00:06:27;;;;;;;31.77;25.27;;;5.50;58.20;;;;;;20294;6918;281109;-73
2023/01/25 00:08:53;;;;;;;31.90;26.02;;;5.90;57.10;;;;;;20278;6918;285603;-73
2023/01/25 00:11:19;;;;;;;28.93;20.23;;;5.90;57.10;;;;;;20497;6918;117840;-74
2023/01/25 00:13:44;;;;;;;25.70;19.17;;;5.70;57.10;;;;;;20502;6918;118522;-72
2023/01/25 00:16:10;;;;;;;30.05;23.90;;;5.40;57.90;;;;;;20287;6918;319617;-73
2023/01/25 00:18:35;;;;;;;29.73;25.07;;;5.30;58.30;;;;;;20287;6918;310772;-73
2023/01/25 00:21:17;;;;;;;27.67;20.70;;;5.50;57.90;;;;;;20483;6918;118930;-73
2023/01/25 00:23:43;;;;;;;30.10;24.80;;;5.40;57.80;;;;;;20269;6918;310738;-73
2023/01/25 00:26:08;;;;;;;30.33;25.13;;;5.50;57.90;;;;;;20284;6918;282411;-73
2023/01/25 00:28:34;;;;;;;28.65;24.73;;;5.70;57.50;;;;;;20285;6918;340087;-72
2023/01/25 00:30:59;;;;;;;25.45;20.27;;;5.80;57.00;;;;;;20479;6918;119005;-73
2023/01/25 00:33:39;;;;;;;29.40;23.67;;;5.60;56.90;;;;;;20274;6918;341040;-73
2023/01/25 00:36:27;;;;;;;25.30;20.07;;;5.60;57.30;;;;;;20480;6918;117822;-73
2023/01/25 00:38:53;;;;;;;30.03;18.93;;;5.10;58.30;;;;;;19798;6918;120124;-74
2023/01/25 00:41:19;;;;;;;25.53;17.17;;;5.10;58.30;;;;;;20499;6918;118497;-74
2023/01/25 00:43:44;;;;;;;24.40;17.83;;;4.90;59.00;;;;;;20496;6918;118234;-74
2023/01/25 00:46:14;;;;;;;31.40;24.73;;;4.70;59.50;;;;;;20288;6918;311209;-74
2023/01/25 00:48:39;;;;;;;28.33;19.80;;;4.80;59.80;;;;;;20496;6918;118336;-73
2023/01/25 00:51:05;;;;;;;26.13;19.00;;;4.70;59.70;;;;;;20479;6918;121323;-73
2023/01/25 00:53:31;;;;;;;25.60;18.80;;;4.60;59.60;;;;;;20505;6916;118811;-73
2023/01/25 00:55:58;;;;;;;33.28;24.35;;;4.50;60.00;;;;;;20299;6917;280582;-73
2023/01/25 00:58:23;;;;;;;30.20;24.33;;;4.70;60.40;;;;;;20288;6917;314567;-73
2023/01/25 01:00:49;;;;;;;24.40;18.62;;;5.00;59.70;;;;;;20476;6917;118527;-73
2023/01/25 01:03:16;;;;;;;24.03;17.13;;;5.00;59.20;;;;;;20477;6917;124920;-73
2023/01/25 01:05:42;;;;;;;21.80;17.30;;;4.80;60.10;;;;;;20487;6918;123880;-73
2023/01/25 01:08:07;;;;;;;23.93;17.37;;;4.70;60.00;;;;;;20484;6918;118736;-73
2023/01/25 01:10:33;;;;;;;27.33;22.20;;;4.50;60.50;;;;;;20271;6918;317154;-73
2023/01/25 01:13:00;;;;;;;27.43;23.67;;;4.60;60.50;;;;;;20264;6918;311493;-73
2023/01/25 01:15:25;;;;;;;30.17;24.17;;;5.00;59.80;;;;;;20291;6918;287482;-73
2023/01/25 01:17:51;;;;;;;27.47;23.47;;;5.30;58.90;;;;;;20286;6918;310318;-73
2023/01/25 01:20:18;;;;;;;26.17;18.60;;;5.40;58.40;;;;;;20502;6918;125161;-76
2023/01/25 01:22:44;;;;;;;28.53;23.87;;;5.40;58.00;;;;;;20274;6918;310886;-73
2023/01/25 01:25:12;;;;;;;25.77;18.87;;;5.30;58.10;;;;;;20465;6918;118502;-77
2023/01/25 01:27:38;;;;;;;23.63;17.00;;;5.30;58.20;;;;;;20483;6918;117729;-73
2023/01/25 01:30:04;;;;;;;21.10;16.50;;;5.10;58.80;;;;;;20478;6918;117582;-73
2023/01/25 01:32:30;;;;;;;23.67;17.40;;;4.80;59.30;;;;;;20475;6918;117923;-73
2023/01/25 01:34:55;;;;;;;26.57;22.20;;;4.70;59.90;;;;;;20262;6918;316905;-74
2023/01/25 01:37:21;;;;;;;21.63;17.80;;;4.80;60.00;;;;;;20498;6918;117955;-73
2023/01/25 01:39:46;;;;;;;28.67;23.20;;;4.80;59.80;;;;;;20291;6918;310745;-73
2023/01/25 01:42:12;;;;;;;25.83;22.17;;;5.00;59.60;;;;;;20289;6918;313695;-73
2023/01/25 01:44:40;;;;;;;26.10;22.62;;;5.30;58.80;;;;;;20284;6918;340287;-73
2023/01/25 01:47:07;;;;;;;21.93;18.53;;;5.50;57.90;;;;;;20297;6918;123040;-73
2023/01/25 01:49:33;;;;;;;21.93;17.07;;;5.40;57.80;;;;;;20473;6918;118267;-73
2023/01/25 01:52:06;;;;;;;21.25;15.48;;;4.90;59.00;;;;;;20487;6918;119397;-72
2023/01/25 01:54:39;;;;;;;25.70;21.40;;;5.00;59.20;;;;;;20264;6918;310736;-73
2023/01/25 01:57:21;;;;;;;25.07;22.20;;;5.00;59.20;;;;;;20208;6918;315354;-73
2023/01/25 01:59:49;;;;;;;25.35;21.35;;;5.30;58.50;;;;;;20274;6918;281134;-73
2023/01/25 02:02:15;;;;;;;24.83;21.73;;;5.50;57.60;;;;;;20264;6918;282293;-73
2023/01/25 02:04:41;;;;;;;19.10;16.93;;;5.60;57.90;;;;;;20477;6918;119152;-73
2023/01/25 02:07:16;;;;;;;25.27;17.37;;;5.50;57.20;;;;;;20457;6916;119901;-73
2023/01/25 02:09:42;;;;;;;28.60;22.75;;;5.30;57.80;;;;;;20249;6917;340034;-72
2023/01/25 02:12:07;;;;;;;26.07;17.90;;;5.30;58.10;;;;;;20481;6917;118164;-73
2023/01/25 02:17:58;;;;;;;24.87;21.37;;;5.00;58.50;;;;;;20266;6918;309681;-73
2023/01/25 02:20:35;;;;;;;24.90;22.00;;;5.10;58.30;;;;;;20289;6918;310781;-73
2023/01/25 02:23:05;;;;;;;24.75;21.75;;;5.40;57.90;;;;;;20261;6918;285455;-73
2023/01/25 02:25:31;;;;;;;21.17;16.93;;;5.60;57.20;;;;;;20478;6918;117609;-73
2023/01/25 02:27:56;;;;;;;22.70;16.97;;;5.50;57.20;;;;;;20494;6918;118933;-72
2023/01/25 02:30:22;;;;;;;23.20;20.80;;;5.20;57.90;;;;;;20267;6918;310526;-73
2023/01/25 02:33:07;;;;;;;24.60;21.10;;;5.20;58.10;;;;;;20278;6918;281522;-73
2023/01/25 02:35:44;;;;;;;21.97;16.40;;;5.30;57.50;;;;;;20551;6845;117864;-73
2023/01/25 02:38:20;;;;;;;23.20;19.90;;;5.30;57.60;;;;;;20262;6842;311175;-73
2023/01/25 02:41:02;;;;;;;20.47;16.17;;;5.30;57.70;;;;;;20622;6817;118372;-73
2023/01/25 02:43:37;;;;;;;24.00;21.05;;;5.30;57.80;;;;;;20386;6828;344588;-72
2023/01/25 02:46:13;;;;;;;22.92;20.52;;;5.30;57.70;;;;;;20450;6803;342442;-73
2023/01/25 02:48:48;;;;;;;21.77;16.67;;;5.60;57.80;;;;;;20695;6825;117695;-73
2023/01/25 02:51:24;;;;;;;24.07;16.37;;;5.40;57.10;;;;;;20701;6805;119018;-73
2023/01/25 02:53:59;;;;;;;18.30;15.10;;;5.10;57.70;;;;;;20631;6822;117686;-73
2023/01/25 02:56:35;;;;;;;24.77;20.70;;;4.90;58.40;;;;;;20325;6853;285742;-73
2023/01/25 02:59:12;;;;;;;20.93;15.20;;;5.00;58.80;;;;;;20586;6830;120012;-73
2023/01/25 03:01:46;;;;;;;24.80;19.65;;;5.00;58.40;;;;;;20390;6842;308919;-73
2023/01/25 03:04:22;;;;;;;19.10;16.30;;;5.10;58.30;;;;;;20549;6834;121437;-72
2023/01/25 03:06:57;;;;;;;19.50;15.33;;;5.10;58.20;;;;;;20494;6840;128241;-73
2023/01/25 03:09:33;;;;;;;17.53;14.87;;;4.80;58.50;;;;;;20527;6860;119553;-73
2023/01/25 03:12:08;;;;;;;19.83;15.57;;;4.70;59.10;;;;;;20588;6846;118379;-72
2023/01/25 03:14:44;;;;;;;22.97;20.10;;;4.50;59.50;;;;;;20369;6826;293320;-73
2023/01/25 03:17:20;;;;;;;24.37;21.77;;;5.10;58.70;;;;;;20257;6851;311134;-73
2023/01/25 03:19:56;;;;;;;23.92;21.30;;;5.00;58.60;;;;;;20415;6819;309901;-73
2023/01/25 03:22:31;;;;;;;21.87;16.87;;;5.40;57.70;;;;;;20705;6794;118625;-73
2023/01/25 03:25:07;;;;;;;19.90;15.23;;;5.30;57.60;;;;;;20610;6818;117994;-73
2023/01/25 03:27:43;;;;;;;18.83;15.20;;;5.00;58.10;;;;;;20497;6824;119324;-74
2023/01/25 03:30:18;;;;;;;22.87;20.10;;;4.80;58.70;;;;;;20368;6841;301884;-73
2023/01/25 03:32:54;;;;;;;25.08;20.75;;;4.90;58.90;;;;;;20413;6809;339333;-73
2023/01/25 03:35:29;;;;;;;20.83;16.87;;;5.20;58.10;;;;;;20700;6794;117739;-73
2023/01/25 03:38:05;;;;;;;22.10;16.03;;;5.10;57.80;;;;;;20465;6824;118160;-73
2023/01/25 03:40:41;;;;;;;19.37;15.63;;;4.90;58.50;;;;;;20651;6810;119189;-73
2023/01/25 03:43:16;;;;;;;19.00;15.73;;;4.70;59.10;;;;;;20669;6809;117768;-74
2023/01/25 03:45:52;;;;;;;24.73;20.37;;;4.50;59.60;;;;;;20441;6809;342977;-74
2023/01/25 03:48:27;;;;;;;19.83;16.37;;;4.70;59.70;;;;;;20686;6806;117369;-73
2023/01/25 03:51:03;;;;;;;19.73;15.97;;;4.70;59.20;;;;;;20633;6802;117586;-74
2023/01/25 03:53:38;;;;;;;19.70;15.70;;;4.60;59.50;;;;;;20626;6820;117658;-73
2023/01/25 03:56:18;;;;;;;23.57;20.63;;;4.50;59.90;;;;;;20409;6812;317466;-73
2023/01/25 03:58:50;;;;;;;25.45;21.55;;;4.60;59.70;;;;;;20457;6797;337385;-74
2023/01/25 04:01:25;;;;;;;23.77;21.08;;;5.00;58.80;;;;;;20500;6797;308150;-73
2023/01/25 04:04:04;;;;;;;25.27;21.83;;;5.30;58.00;;;;;;20441;6812;283702;-74
2023/01/25 04:06:40;;;;;;;25.67;22.10;;;5.60;57.40;;;;;;20387;6812;345205;-74
2023/01/25 04:09:16;;;;;;;23.67;21.00;;;5.70;56.70;;;;;;20446;6800;337193;-74
2023/01/25 04:11:49;;;;;;;23.27;20.85;;;5.90;56.30;;;;;;20464;6801;312777;-74
2023/01/25 04:14:24;;;;;;;20.20;16.63;;;5.90;56.00;;;;;;20675;6801;117904;-75
2023/01/25 04:17:04;;;;;;;21.93;16.00;;;5.70;56.20;;;;;;20530;6820;119233;-73
2023/01/25 04:19:36;;;;;;;19.17;15.60;;;5.40;57.10;;;;;;20636;6817;117552;-74
2023/01/25 04:22:15;;;;;;;25.70;21.55;;;5.00;57.80;;;;;;20436;6817;309245;-74
2023/01/25 04:24:48;;;;;;;23.30;17.47;;;5.10;58.20;;;;;;20664;6802;121407;-73
2023/01/25 04:27:23;;;;;;;23.83;16.43;;;5.10;58.10;;;;;;20606;6802;118539;-74
2023/01/25 04:29:59;;;;;;;24.43;20.57;;;4.90;58.60;;;;;;20474;6802;308141;-74
2023/01/25 04:32:35;;;;;;;24.00;16.00;;;5.00;58.60;;;;;;20682;6801;117838;-74
2023/01/25 04:35:10;;;;;;;21.77;15.60;;;5.00;58.40;;;;;;20659;6801;117929;-74
2023/01/25 04:37:55;;;;;;;26.92;21.85;;;4.80;58.70;;;;;;20328;6801;340941;-74
2023/01/25 04:40:31;;;;;;;26.67;21.65;;;4.90;58.70;;;;;;20461;6802;337511;-74
2023/01/25 04:43:06;;;;;;;25.62;21.87;;;5.30;57.90;;;;;;20427;6802;307984;-73
2023/01/25 04:45:45;;;;;;;24.30;20.67;;;5.50;57.20;;;;;;20490;6794;313291;-74
2023/01/25 04:48:18;;;;;;;23.10;17.67;;;5.60;56.70;;;;;;20531;6794;118361;-74
2023/01/25 04:50:54;;;;;;;24.42;20.05;;;5.60;56.70;;;;;;20418;6809;308580;-73
2023/01/25 04:53:30;;;;;;;20.07;16.13;;;5.50;56.80;;;;;;20668;6809;117711;-73
2023/01/25 04:56:06;;;;;;;23.77;21.20;;;5.50;57.20;;;;;;20446;6809;329412;-73
2023/01/25 04:58:41;;;;;;;21.27;16.47;;;5.40;57.10;;;;;;20623;6824;118262;-73
2023/01/25 05:01:17;;;;;;;20.50;15.47;;;5.40;57.20;;;;;;20672;6809;118016;-73
2023/01/25 05:03:54;;;;;;;20.70;15.67;;;5.10;57.70;;;;;;20670;6803;119213;-74
2023/01/25 05:06:31;;;;;;;23.83;20.67;;;4.90;58.30;;;;;;20418;6803;311149;-74
2023/01/25 05:09:08;;;;;;;19.27;15.83;;;5.00;57.90;;;;;;20675;6803;119473;-73
2023/01/25 05:11:44;;;;;;;25.08;21.05;;;5.10;57.80;;;;;;20402;6818;338981;-74
2023/01/25 05:14:20;;;;;;;25.00;21.50;;;5.10;57.80;;;;;;20495;6794;309198;-74
2023/01/25 05:16:55;;;;;;;23.67;21.17;;;5.40;57.20;;;;;;20299;6822;281558;-73
2023/01/25 05:19:31;;;;;;;23.53;21.03;;;5.60;56.50;;;;;;20436;6809;280325;-74
2023/01/25 05:22:10;;;;;;;22.67;20.00;;;5.80;56.00;;;;;;20435;6809;323469;-74
2023/01/25 05:24:45;;;;;;;22.98;19.80;;;5.90;55.60;;;;;;20439;6809;313182;-73
2023/01/25 05:27:21;;;;;;;23.45;20.33;;;6.00;55.30;;;;;;20333;6809;341574;-72
2023/01/25 05:29:56;;;;;;;19.93;16.03;;;6.10;55.00;;;;;;20644;6809;118178;-74
2023/01/25 05:32:35;;;;;;;30.63;23.50;;;5.90;55.40;;;;;;20659;6810;121594;-75
2023/01/25 05:35:08;;;;;;;50.57;38.67;;;5.50;56.10;;;;;;20409;6802;288459;-75
2023/01/25 05:37:43;;;;;;;23.07;20.17;;;5.50;56.40;;;;;;20347;6802;280258;-74
2023/01/25 05:40:19;;;;;;;22.58;20.17;;;5.70;55.90;;;;;;20492;6791;341074;-75
2023/01/25 05:42:59;;;;;;;22.47;16.47;;;5.80;55.50;;;;;;20632;6822;118862;-74
2023/01/25 05:45:35;;;;;;;22.95;19.62;;;5.60;55.90;;;;;;20439;6809;337951;-75
2023/01/25 05:48:11;;;;;;;21.23;16.37;;;5.60;55.90;;;;;;20514;6806;118713;-75
2023/01/25 05:50:47;;;;;;;20.27;14.93;;;5.50;56.10;;;;;;20682;6791;121623;-76
2023/01/25 05:53:25;;;;;;;17.37;14.50;;;5.30;57.50;;;;;;20704;6791;118550;-73
2023/01/25 05:56:04;;;;;;;21.57;19.37;;;5.00;57.40;;;;;;20482;6791;278980;-73
2023/01/25 05:58:41;;;;;;;22.62;20.23;;;5.40;56.50;;;;;;20428;6808;303117;-74
2023/01/25 06:01:16;;;;;;;19.63;16.27;;;5.40;56.50;;;;;;20671;6806;118272;-73
2023/01/25 06:03:52;;;;;;;19.43;15.93;;;5.40;56.40;;;;;;20661;6809;117779;-74
2023/01/25 06:06:27;;;;;;;20.50;14.73;;;5.10;56.90;;;;;;20625;6803;117814;-73
2023/01/25 06:09:03;;;;;;;18.50;14.83;;;4.90;57.50;;;;;;20618;6821;117917;-72
2023/01/25 06:11:39;;;;;;;18.80;15.50;;;4.70;58.60;;;;;;20672;6806;118744;-74
2023/01/25 06:14:14;;;;;;;20.20;14.73;;;4.60;58.50;;;;;;20609;6824;117727;-73
2023/01/25 06:16:50;;;;;;;22.98;19.55;;;4.40;58.70;;;;;;20375;6806;340352;-72
2023/01/25 06:19:25;;;;;;;22.17;19.42;;;4.60;58.70;;;;;;20456;6802;339155;-74
2023/01/25 06:22:01;;;;;;;22.87;16.80;;;5.00;57.80;;;;;;20658;6810;117625;-74
2023/01/25 06:24:38;;;;;;;17.97;14.57;;;5.10;57.50;;;;;;20658;6806;119466;-75
2023/01/25 06:27:13;;;;;;;18.27;14.80;;;4.90;57.90;;;;;;20565;6791;121306;-74
2023/01/25 06:29:49;;;;;;;19.27;15.50;;;4.70;58.40;;;;;;20643;6808;118905;-72
2023/01/25 06:32:26;;;;;;;17.47;13.93;;;4.60;58.80;;;;;;20650;6806;118009;-74
2023/01/25 06:35:00;;;;;;;21.13;14.30;;;4.40;59.00;;;;;;20599;6804;119790;-75
2023/01/25 06:37:36;;;;;;;21.20;18.85;;;4.30;59.30;;;;;;20255;6810;346127;-75
2023/01/25 06:40:11;;;;;;;19.47;15.53;;;4.60;59.10;;;;;;20640;6813;118079;-79
2023/01/25 06:42:47;;;;;;;18.20;14.73;;;4.60;58.60;;;;;;20616;6812;117791;-77
2023/01/25 06:45:32;;;;;;;16.90;14.20;;;4.60;58.90;;;;;;20578;6834;118069;-77
2023/01/25 06:47:58;;;;;;;17.90;14.40;;;4.40;59.10;;;;;;20409;6845;119358;-76
2023/01/25 06:50:35;;;;;;;19.77;13.60;;;4.30;59.50;;;;;;20640;6806;118971;-76
2023/01/25 06:53:12;;;;;;;15.93;13.07;;;4.30;59.90;;;;;;20576;6838;120419;-81
2023/01/25 06:55:47;;;;;;;19.07;14.37;;;4.20;60.00;;;;;;20653;6816;121916;-76
2023/01/25 06:58:23;;;;;;;20.50;14.07;;;4.20;60.50;;;;;;20515;6863;70279;-76
2023/01/25 07:01:18;;;;;;;18.33;14.77;;;4.10;60.40;;;;;;20607;6822;118017;-75
2023/01/25 07:03:54;;;;;;;22.45;20.05;;;4.10;60.50;;;;;;20400;6822;308773;-76
2023/01/25 07:06:29;;;;;;;21.90;17.17;;;4.40;60.00;;;;;;20552;6817;117694;-76
2023/01/25 07:09:05;;;;;;;21.85;19.55;;;4.60;59.70;;;;;;20392;6807;334521;-76
2023/01/25 07:11:44;;;;;;;17.57;15.67;;;4.80;59.20;;;;;;20596;6845;117706;-78
2023/01/25 07:14:16;;;;;;;19.80;15.47;;;4.90;58.60;;;;;;20646;6815;118591;-77
2023/01/25 07:16:52;;;;;;;20.63;18.50;;;4.70;59.40;;;;;;20326;6830;281934;-76
2023/01/25 07:19:27;;;;;;;20.97;18.77;;;4.90;58.20;;;;;;20393;6827;280122;-76
2023/01/25 07:22:04;;;;;;;18.60;16.13;;;5.20;57.00;;;;;;20639;6815;118759;-76
2023/01/25 07:24:39;;;;;;;21.47;16.17;;;5.20;57.00;;;;;;20603;6820;117814;-75
2023/01/25 07:27:16;;;;;;;18.87;15.60;;;5.00;57.50;;;;;;20554;6816;116039;-75
2023/01/25 07:29:57;;;;;;;16.43;13.47;;;4.80;58.20;;;;;;20697;6794;117417;-73
2023/01/25 07:32:28;;;;;;;21.73;19.23;;;4.70;58.50;;;;;;20456;6794;309776;-75
2023/01/25 07:35:04;;;;;;;21.73;19.37;;;4.90;58.00;;;;;;20447;6804;280511;-75
2023/01/25 07:37:40;;;;;;;21.03;18.93;;;5.20;56.90;;;;;;20369;6796;310644;-76
2023/01/25 07:40:15;;;;;;;18.90;17.03;;;5.60;56.00;;;;;;20432;6807;338977;-74
2023/01/25 07:42:51;;;;;;;15.93;14.17;;;5.80;54.70;;;;;;20634;6815;121697;-75
2023/01/25 07:45:31;;;;;;;19.60;17.50;;;5.70;54.80;;;;;;20437;6810;338776;-75
2023/01/25 07:48:03;;;;;;;19.57;17.67;;;5.70;54.50;;;;;;20344;6810;311089;-75
2023/01/25 07:50:40;;;;;;;19.37;17.47;;;5.80;54.00;;;;;;20477;6798;283502;-75
2023/01/25 07:53:14;;;;;;;20.07;18.07;;;6.00;53.70;;;;;;20461;6798;305065;-75
2023/01/25 07:55:51;;;;;;;18.70;16.90;;;6.30;52.90;;;;;;20473;6798;308317;-78
2023/01/25 07:58:28;;;;;;;15.67;13.43;;;6.30;52.90;;;;;;20459;6869;119098;-75
2023/01/25 08:01:10;;;;;;;18.73;17.00;;;6.00;53.10;;;;;;20445;6806;280270;-75
2023/01/25 08:03:46;;;;;;;14.47;12.97;;;5.70;53.70;;;;;;20688;6797;120037;-76
2023/01/25 08:06:26;;;;;;;15.27;12.63;;;5.70;53.70;;;;;;20675;6796;117461;-74
2023/01/25 08:08:57;;;;;;;13.27;11.77;;;5.40;54.50;;;;;;20666;6803;118308;-75
2023/01/25 08:11:33;;;;;;;16.23;14.63;;;5.10;55.10;;;;;;20465;6803;308297;-74
2023/01/25 08:14:10;;;;;;;16.70;15.20;;;5.20;54.90;;;;;;20462;6803;311280;-76
2023/01/25 08:16:44;;;;;;;17.55;15.85;;;5.50;54.10;;;;;;20425;6803;310444;-79
2023/01/25 08:19:24;;;;;;;13.77;12.37;;;5.80;53.30;;;;;;20694;6797;117605;-76
2023/01/25 08:22:00;;;;;;;13.93;12.70;;;5.60;53.40;;;;;;20484;6797;283406;-77
2023/01/25 08:24:32;;;;;;;11.53;10.43;;;5.60;53.20;;;;;;20692;6797;118870;-72
2023/01/25 08:27:08;;;;;;;13.33;12.03;;;5.50;53.50;;;;;;20596;6797;121678;-74
2023/01/25 08:29:43;;;;;;;15.35;13.95;;;5.30;54.10;;;;;;20478;6797;326312;-72
2023/01/25 08:32:20;;;;;;;15.27;13.82;;;5.60;53.10;;;;;;20468;6797;343313;-73
2023/01/25 08:34:56;;;;;;;11.73;10.57;;;5.60;53.10;;;;;;20672;6797;118395;-74
2023/01/25 08:37:32;;;;;;;14.00;12.70;;;5.50;53.10;;;;;;20369;6797;315569;-72
2023/01/25 08:40:09;;;;;;;12.77;11.53;;;5.50;53.10;;;;;;20673;6803;117458;-71
2023/01/25 08:42:45;;;;;;;11.43;10.23;;;5.30;53.40;;;;;;20669;6804;118154;-72
2023/01/25 08:45:25;;;;;;;11.87;10.67;;;5.30;53.70;;;;;;20670;6804;117527;-71
2023/01/25 08:47:57;;;;;;;13.53;12.23;;;5.10;54.20;;;;;;20353;6804;312001;-75
2023/01/25 08:50:33;;;;;;;15.57;14.03;;;5.20;53.50;;;;;;20482;6797;308812;-73
2023/01/25 08:53:08;;;;;;;11.77;10.57;;;5.50;52.60;;;;;;20584;6827;122211;-73
2023/01/25 08:55:45;;;;;;;11.70;10.50;;;5.20;53.40;;;;;;20671;6812;117501;-73
2023/01/25 08:58:21;;;;;;;13.70;12.32;;;5.20;53.30;;;;;;20280;6834;316028;-73
2023/01/25 09:00:56;;;;;;;13.38;12.23;;;5.30;53.30;;;;;;20427;6804;307741;-73
2023/01/25 09:03:35;;;;;;;13.52;12.23;;;5.60;52.30;;;;;;20461;6804;310076;-74
2023/01/25 09:06:12;;;;;;;13.48;12.18;;;5.90;51.50;;;;;;20473;6804;309642;-74
2023/01/25 09:08:47;;;;;;;13.02;11.93;;;6.10;50.90;;;;;;20489;6804;308881;-74
2023/01/25 09:11:29;;;;;;;13.88;12.48;;;6.30;50.10;;;;;;20493;6804;342450;-75
2023/01/25 09:14:02;;;;;;;10.50;9.60;;;6.30;50.10;;;;;;20714;6804;118473;-75
2023/01/25 09:16:38;;;;;;;10.53;9.53;;;6.10;50.70;;;;;;20661;6789;117200;-76
2023/01/25 09:19:13;;;;;;;12.82;11.65;;;5.70;52.20;;;;;;20479;6789;313682;-76
2023/01/25 09:21:49;;;;;;;12.30;10.97;;;5.70;51.50;;;;;;20709;6789;117446;-74
2023/01/25 09:24:25;;;;;;;16.20;13.60;;;5.60;51.70;;;;;;20433;6815;343614;-77
2023/01/25 09:27:00;;;;;;;16.37;14.27;;;5.70;51.60;;;;;;20337;6815;339796;-76
2023/01/25 09:29:36;;;;;;;10.73;9.73;;;6.00;51.20;;;;;;20644;6815;117538;-75
2023/01/25 09:32:11;;;;;;;13.77;12.47;;;5.90;51.30;;;;;;20468;6815;308778;-76
2023/01/25 09:34:48;;;;;;;16.62;14.82;;;6.00;50.50;;;;;;20412;6830;278974;-78
2023/01/25 09:37:23;;;;;;;16.17;14.57;;;6.10;50.60;;;;;;20329;6812;311753;-77
2023/01/25 09:39:59;;;;;;;17.93;16.20;;;6.30;50.40;;;;;;20468;6799;308315;-78
2023/01/25 09:42:37;;;;;;;24.87;20.87;;;6.40;50.00;;;;;;20685;6798;118137;-76
2023/01/25 09:45:26;;;;;;;15.90;12.83;;;6.20;50.30;;;;;;20613;6814;118611;-76
2023/01/25 09:48:08;;;;;;;15.93;14.43;;;5.80;51.10;;;;;;20323;6799;333170;-75
2023/01/25 09:51:06;;;;;;;16.53;14.40;;;5.80;51.60;;;;;;20716;6789;117599;-73
2023/01/25 09:53:49;;;;;;;17.48;15.68;;;5.70;51.80;;;;;;20509;6789;279059;-76
2023/01/25 09:56:25;;;;;;;19.13;14.27;;;5.70;51.70;;;;;;20645;6804;117674;-76
2023/01/25 09:59:04;;;;;;;12.83;11.50;;;5.60;51.90;;;;;;20702;6789;117821;-74
2023/01/25 10:01:56;;;;;;;19.97;16.70;;;5.40;52.50;;;;;;20429;6812;289117;-77
2023/01/25 10:04:38;;;;;;;18.20;16.37;;;5.80;52.20;;;;;;20482;6796;342532;-76
2023/01/25 10:07:21;;;;;;;15.87;13.27;;;5.80;52.20;;;;;;20523;6819;120264;-77
2023/01/25 10:10:00;;;;;;;17.02;15.40;;;5.70;52.30;;;;;;20412;6828;309736;-76
2023/01/25 10:12:35;;;;;;;14.33;12.13;;;5.80;51.90;;;;;;20609;6823;118159;-77
2023/01/25 10:15:21;;;;;;;16.90;15.23;;;5.70;52.60;;;;;;20335;6809;327420;-78
2023/01/25 10:18:06;;;;;;;17.20;15.50;;;5.70;52.20;;;;;;20303;6815;310847;-77
2023/01/25 10:20:53;;;;;;;13.07;11.67;;;6.00;51.80;;;;;;20700;6804;117580;-78
2023/01/25 10:23:35;;;;;;;16.60;14.80;;;5.90;52.00;;;;;;20387;6849;309087;-77
2023/01/25 10:26:28;;;;;;;16.20;14.60;;;5.80;51.90;;;;;;20479;6801;296817;-76
2023/01/25 10:29:10;;;;;;;16.33;14.63;;;6.10;51.40;;;;;;20401;6819;332534;-76
2023/01/25 10:31:52;;;;;;;14.33;11.83;;;6.20;51.00;;;;;;20623;6821;118402;-77
2023/01/25 10:34:24;;;;;;;12.53;10.90;;;6.00;51.40;;;;;;20611;6827;121327;-76
2023/01/25 10:37:00;;;;;;;14.23;10.70;;;5.70;52.20;;;;;;20563;6815;118095;-75
2023/01/25 10:39:38;;;;;;;13.77;11.83;;;5.40;52.90;;;;;;20640;6804;284455;-75
2023/01/25 10:42:13;;;;;;;13.30;11.90;;;5.30;53.40;;;;;;20637;6816;117726;-76
2023/01/25 10:44:49;;;;;;;17.27;15.63;;;5.10;53.70;;;;;;20398;6837;312925;-75
2023/01/25 10:47:28;;;;;;;14.30;12.80;;;5.20;53.60;;;;;;20529;6820;118004;-75
2023/01/25 10:50:03;;;;;;;19.97;17.23;;;5.30;53.60;;;;;;20420;6820;309792;-73
2023/01/25 10:52:39;;;;;;;14.03;12.10;;;5.50;53.20;;;;;;20656;6812;119196;-73
2023/01/25 10:55:18;;;;;;;16.33;12.60;;;5.40;53.10;;;;;;20624;6812;117365;-74
2023/01/25 10:57:53;;;;;;;17.60;15.70;;;5.30;53.70;;;;;;20293;6812;284271;-75
2023/01/25 11:00:39;;;;;;;16.93;15.20;;;5.70;52.80;;;;;;20473;6797;279592;-74
2023/01/25 11:24:26;;;;;;;17.07;15.27;;;6.50;49.90;;;;;;20973;6514;306298;-75
2023/01/25 11:26:52;;;;;;;18.70;16.73;;;6.60;50.00;;;;;;20556;6791;310341;-74
2023/01/25 11:29:21;;;;;;;18.17;16.27;;;6.60;50.10;;;;;;20439;6843;290578;-73
2023/01/25 11:31:46;;;;;;;17.80;15.90;;;6.60;50.00;;;;;;20545;6827;303842;-72
2023/01/25 11:34:12;;;;;;;50.07;44.67;;;6.50;50.00;;;;;;20527;6828;308717;-72
2023/01/25 11:36:50;;;;;;;19.30;14.67;;;6.50;50.10;;;;;;20776;6820;117335;-75
2023/01/25 11:39:16;;;;;;;15.43;12.53;;;6.30;50.70;;;;;;20777;6820;117448;-73
2023/01/25 11:41:42;;;;;;;13.20;11.80;;;5.80;51.50;;;;;;20805;6820;117112;-74
2023/01/25 11:44:25;;;;;;;21.77;19.52;;;5.50;52.20;;;;;;20542;6820;314661;-73
2023/01/25 11:46:52;;;;;;;15.93;12.87;;;5.50;52.40;;;;;;20744;6826;118098;-74
2023/01/25 11:49:21;;;;;;;16.87;14.20;;;5.40;52.60;;;;;;20000;6826;119257;-75
2023/01/25 11:51:53;;;;;;;15.63;12.33;;;5.20;53.10;;;;;;20758;6832;117414;-74
2023/01/25 11:54:28;;;;;;;15.53;12.00;;;5.00;53.50;;;;;;20718;6832;117320;-74
2023/01/25 11:57:03;;;;;;;14.80;11.63;;;4.80;53.70;;;;;;20724;6832;121057;-74
2023/01/25 11:59:53;;;;;;;21.73;17.13;;;4.60;54.00;;;;;;20700;6831;120477;-74
2023/01/25 12:02:28;;;;;;;21.60;19.13;;;4.50;54.30;;;;;;20489;6831;283858;-74
2023/01/25 12:04:54;;;;;;;58.72;52.70;;;4.70;54.30;;;;;;20516;6826;307639;-74
2023/01/25 12:07:26;;;;;;;24.95;22.10;;;5.10;53.80;;;;;;20534;6826;336214;-73
2023/01/25 12:10:01;;;;;;;80.53;54.80;;;5.40;53.30;;;;;;20761;6826;117846;-73
2023/01/25 12:12:39;;;;;;;21.83;16.83;;;5.30;53.10;;;;;;20761;6826;117187;-74
2023/01/25 12:15:07;;;;;;;16.10;12.63;;;4.90;54.10;;;;;;20704;6826;123670;-82
2023/01/25 12:17:32;;;;;;;14.20;12.53;;;4.90;54.10;;;;;;20763;6826;117223;-78
2023/01/25 12:20:21;;;;;;;22.37;19.50;;;4.70;54.30;;;;;;20735;6826;118521;-77
2023/01/25 12:23:09;;;;;;;15.37;12.27;;;4.50;54.60;;;;;;20759;6826;117698;-74
2023/01/25 12:25:58;;;;;;;34.80;31.93;;;4.40;55.00;;;;;;20569;6826;277290;-73
2023/01/25 12:28:23;;;;;;;83.20;74.97;;;4.60;54.60;;;;;;20538;6826;326433;-74
2023/01/25 12:30:49;;;;;;;46.45;41.85;;;5.00;53.80;;;;;;19810;6826;310890;-73
2023/01/25 12:33:14;;;;;;;22.34;20.00;;;5.30;53.40;;;;;;20555;6826;338741;-74
2023/01/25 12:35:40;;;;;;;13.50;12.15;;;5.50;52.70;;;;;;20761;6824;117252;-72
2023/01/25 12:38:12;;;;;;;16.03;13.27;;;5.40;52.80;;;;;;20761;6825;118576;-72
2023/01/25 12:40:41;;;;;;;25.33;22.67;;;5.20;53.40;;;;;;20750;6826;117338;-75
2023/01/25 12:43:06;;;;;;;23.20;20.93;;;5.00;54.00;;;;;;20531;6826;307286;-73
2023/01/25 12:45:32;;;;;;;13.43;11.50;;;5.10;53.70;;;;;;20743;6826;121642;-74
2023/01/25 12:48:21;;;;;;;11.48;10.27;;;4.90;54.00;;;;;;20761;6826;117161;-74
2023/01/25 12:50:50;;;;;;;15.05;13.55;;;5.00;54.00;;;;;;20534;6826;336930;-74
2023/01/25 12:53:18;;;;;;;13.37;11.97;;;5.10;53.60;;;;;;20767;6826;118059;-71
2023/01/25 12:55:44;;;;;;;11.60;10.40;;;5.10;53.50;;;;;;20779;6826;118937;-73
2023/01/25 12:58:39;;;;;;;11.50;9.63;;;5.00;53.80;;;;;;20776;6826;117380;-71
2023/01/25 13:01:18;;;;;;;10.67;8.97;;;4.80;54.10;;;;;;20739;6826;117840;-73
2023/01/25 13:04:00;;;;;;;11.83;9.97;;;4.60;54.50;;;;;;20766;6826;117607;-72
2023/01/25 13:06:45;;;;;;;14.23;12.77;;;4.50;54.90;;;;;;20548;6826;337011;-72
2023/01/25 13:09:19;;;;;;;13.90;12.60;;;4.70;54.40;;;;;;20555;6826;277748;-73
2023/01/25 13:11:43;;;;;;;13.85;12.32;;;5.10;53.80;;;;;;20522;6826;307443;-71
2023/01/25 13:14:16;;;;;;;18.23;16.53;;;5.70;52.80;;;;;;20560;6826;307544;-73
2023/01/25 13:16:50;;;;;;;14.80;13.40;;;5.70;53.40;;;;;;20566;6826;277534;-72
2023/01/25 13:19:17;;;;;;;13.53;12.17;;;5.90;52.30;;;;;;20773;6826;117513;-73
2023/01/25 13:21:43;;;;;;;21.17;16.53;;;5.80;52.70;;;;;;20693;6826;120592;-72
2023/01/25 13:24:17;;;;;;;12.63;10.83;;;5.50;53.30;;;;;;20767;6826;117123;-71
2023/01/25 13:26:47;;;;;;;16.20;14.43;;;5.30;53.60;;;;;;20548;6826;340058;-72
2023/01/25 13:29:33;;;;;;;14.90;13.43;;;5.60;52.60;;;;;;20578;6826;280507;-77